Untidy Bookshelves

アクセスカウンタ

zoom RSS *** WTSPT etc. (5/9) ***

<<   作成日時 : 2012/05/10 06:41   >>

ブログ気持玉 0 / トラックバック 0 / コメント 0

 下は、きのう(9日)朝から昼過ぎにかけてのセントレアのMETAR。
 長くなってしまいましたが、雷の記事があるものを並べたものです。
 上空の寒気の影響で、伊勢湾周辺には活発な対流雲が現われていて、多数の落雷がありました。
 セントレア周辺でも長い時間にわたって、落雷を観測したわけです。

-----------------------------------------------------------------------------
RJGG 082130Z 34006KT 7000 VCSH BR FEW030 SCT100 BKN110 17/14 Q1010 NOSIG RMK 1CU030 4AC100 7AC110 A2984 3000SE
RJGG 082149Z VRB03KT 6000 -TSRA FEW025CB SCT040 BKN110 17/14 Q1010 RMK 1CB025 3CU040 7AC110 A2985 FBL TS 20KM S MOV NE
RJGG 082200Z 34005KT 6000 -TSRA FEW025CB SCT040 BKN070 17/14 Q1010 NOSIG RMK 2CB025 3CU040 5AC070 A2984 MOD TS 10KM S MOV NE
RJGG 082230Z VRB02KT 7000 -SHRA FEW015 FEW025CB SCT040 BKN070 17/15 Q1010 RETS BECMG 36005KT RMK 1CU015 1CB025 3CU040 5AC070 A2985 CB 15KM E MOV NE
RJGG 082300Z 32009KT 8000 FEW020 FEW025CB SCT040 BKN/// 18/14 Q1010 NOSIG RMK 1CU020 1CB025 3CU040 A2984 CB 15KM NE MOV NE
RJGG 082309Z 33008KT 7000 TS VCSH FEW020 FEW025CB SCT040 BKN110 18/14 Q1010 RMK 1CU020 1CB025 3CU040 5AC110 A2984 FBL TS 20KM W MOV NE
RJGG 082330Z 34004KT 7000 -TSRA FEW020 FEW030CB SCT040 BKN070 18/14 Q1011 TEMPO 4000 TSRA RMK 1CU020 2CB030 3CU040 5AC070 A2986 MOD TS 10KM W MOV NE
RJGG 082342Z 31009KT 9000 +FC -TSRA FEW020 SCT030CB SCT040 BKN070 17/14 Q1011 RMK 1CU020 3CB030 3CU040 5AC070 A2986 WTSPT OHD MOV NE HVY TS OHD MOV NE
RJGG 090000Z 01011KT 6000 R36/P1800N -TSRA FEW015 SCT030CB BKN070 16/13 Q1010 REFC TEMPO 4000 TSRA BR FC RMK 1CU015 3CB030 5AC070 A2985 HVY TS OHD MOV NE
RJGG 090030Z 36007KT 6000 -TSRA FEW015 FEW030CB BKN070 17/14 Q1011 TEMPO 4000 TSRA BR RMK 1CU015 2CB030 6AC070 A2986 FBL TS 20KM SE MOV NE
RJGG 090100Z 08007KT 040V120 6000 -TSRA FEW015 FEW030CB BKN080 17/14 Q1010 TEMPO 4000 -TSRA BR BECMG 07007KT RMK 1CU015 2CB030 6AC080 A2985 FBL TS 20KM SE MOV NE
RJGG 090126Z VRB01KT 5000 -SHRA BR FEW020 FEW030CB BKN070 18/14 Q1011 RETS RMK 1CU020 2CB030 6AC070 A2987 CB 20KM SE MOV NE
RJGG 090130Z VRB03KT 5000 -SHRA BR FEW020 FEW030CB BKN070 18/15 Q1011 RETS BECMG 30007KT TEMPO 4000 -TSRA BR RMK 1CU020 2CB030 6AC070 A2987 CB 20KM SE MOV NE
RJGG 090200Z 17010KT 4500 VCSH BR FEW020 SCT060 BKN100 17/14 Q1012 NOSIG RMK 1CU020 3SC060 6AC100 A2989
RJGG 090230Z 17008KT 4000 -SHRA BR FEW020 SCT030 BKN060 17/15 Q1012 TEMPO -TSRA BR RMK 1CU020 3CU030 6SC060 A2988
RJGG 090300Z 19008KT 4000 -SHRA BR FEW020 SCT030 BKN110 16/14 Q1012 TEMPO -TSRA BR RMK 1CU020 3CU030 6AC110 A2988
RJGG 090330Z 15008KT 4500 -SHRA BR FEW015 SCT030 BKN080 17/15 Q1011 TEMPO -TSRA BR RMK 1CU015 3CU030 6AC080 A2987
RJGG 090400Z 11012KT 2800 -SHRA BR FEW015 SCT030 BKN060 17/15 Q1009 TEMPO -TSRA BR RMK 1CU015 3CU030 6SC060 A2982 P/FR
RJGG 090430Z 11003KT 080V150 2800 BR FEW015 SCT120 BKN150 17/16 Q1010 NOSIG RMK 1CU015 3AC120 6AC150 A2985 P/RR

-----------------------------------------------------------------------------

 この中で、(おそらく)初めて見たのが、082342ZのWTSPT。Waterspoutの略、水上竜巻でした。
 METARには、まだまだ知らない記述がたくさんありますね。。

 下は当時のレーダーエコー図。
 伊勢湾や南の海上の強いエコーは、やや北へ盛り上がりながら東進すると思っていたのですが・・・。

 ●レーダーエコー図   5月9日8時40分
画像

 海上にかかるエコーは強かったものの、陸上にかかるものは静岡県に入って衰弱。
 関東南部は、関東北部にかかるエコーと海上の強いエコーの間で、見事なまでの空白域。。

 ●レーダーエコー図   5月9日15時
画像

 予想していた強雨は空振りか? とも思いましたが、杞憂(?)でした。。
 東京・神奈川の都県境では地上風の収束が明瞭になり、17時頃には神奈川西部で強いエコーが出現。
 さらに、都心直上でも対流雲が発達。局地的に時間30ミリ以上の激しい雨が降りました。
 茨城県南部では雹も観測されたようです。

 ●レーダーエコー図     左:5月9日16時〜19時    右:5月20時〜23時
画像

 きのうの500hPa天気図。
 沿海州付近に寒冷渦があり、その南側のトラフが西〜東日本を通過しました。
 このトラフでも十分不安定な状態になったわけですが・・・。

 ●AXFE578          左:5月9日9時     右:5月9日21時

 きょうは寒冷渦本体が南下。かなりシビアな現象が起こりそうです。
 渦の通り道と下層シアの位置からすると、特に要注意なのは、関東南部・茨城県と山梨県、静岡県東部でしょうか。

 ●AXFE578          左:5月10日9時     右:5月10日21時

テーマ

関連テーマ 一覧


月別リンク

ブログ気持玉

クリックして気持ちを伝えよう!
ログインしてクリックすれば、自分のブログへのリンクが付きます。
→ログインへ

トラックバック(0件)

タイトル (本文) ブログ名/日時

トラックバック用URL help


自分のブログにトラックバック記事作成(会員用) help

タイトル
本 文

コメント(0件)

内 容 ニックネーム/日時

コメントする help

ニックネーム
本 文
*** WTSPT etc. (5/9) *** Untidy Bookshelves/BIGLOBEウェブリブログ
文字サイズ:       閉じる